Mountain Lakes, NJ (07046)

2:20 AM EST on January 30, 2015 (GMT -0500)
MLHS - Earth Science | Change Station
CLOSE
Current Station
Personal Weather Station
Location: Mountain Lakes, NJ
Elevation: 482 ft
Nearby Weather Stations
Active Advisory: Special Statement Active Notice: Public Information Statement

Elev 482 ft 40.90 °N, 74.43 °W | Updated 4 seconds ago

Snow
Snow
27.4 °F
Feels Like 27 °F
N
0.0
Wind Variable Wind from ENE
Gusts 0.0 mph

Today
High -- | Low -- °F
--% Chance of Precip.
Yesterday
High -- | Low -- °F
Precip. -- in
7:10 AM 5:12 PM
Waxing Gibbous, 80% visible
Pressure 29.92 in
Visibility 5.0 miles
Clouds Scattered Clouds 1000 ft
Scattered Clouds 3400 ft
Overcast 4100 ft
Windchill 27 °F
Dew Point 25 °F
Humidity 89%
Rainfall 0.00 in
Snow Depth Not available.
UV 0.0 out of 12
Pollen .10 out of 12
Air Quality Not available.
Flu Activity Not available.
METAR KMMU 300655Z AUTO 00000KT 5SM -SN SCT010 SCT034 OVC041 M00/M02 A2992 RMK AO2

More Conditions Fewer Conditions

Pressure 29.92 in
Visibility 5.0 miles
Clouds Scattered Clouds 1000 ft
Scattered Clouds 3400 ft
Overcast 4100 ft
Windchill 27 °F
Dew Point 25 °F
Humidity 89%
Rainfall 0.00 in
Snow Depth Not available.
UV 0.0 out of 12
Pollen .10 out of 12
Air Quality Not available.
Flu Activity Not available.
METAR KMMU 300655Z AUTO 00000KT 5SM -SN SCT010 SCT034 OVC041 M00/M02 A2992 RMK AO2

More Conditions Fewer Conditions

10-Day Weather Forecast

Almanac

Astronomy

Jan. 30, 2015 Rise Set
Actual Time
Civil Twilight
Nautical Twilight
Astronomical Twilight
Moon
Length of Visible Light
Length of Day
Tomorrow will be .
, % of the Moon is Illuminated

Today's Extremes

State Highs State Lows

Community

WunderPhotos

Upload Photos

1,791,726 photos uploaded!

WunderBlogs® & News

Nearby

Air Quality

  Air Quality AQ Index Pollutant
Not available.

Snow Depth

Station Depth Elevation

Earthquake Activity

City Distance Mag. Time & Date
Minimum magnitude displayed is 2.5.

Coastal Water Temperatures

Place Temperature

Nearby Weather Stations